Time,TemperatureF,DewpointF,PressureIn,WindDirection,WindDirectionDegrees,WindSpeedMPH,WindSpeedGustMPH,Humidity,HourlyPrecipIn,Conditions,Clouds,dailyrainin,SoftwareType,DateUTC
2013-03-03 00:00:00,20.3,18.2,29.90,North,0,0.0,2.2,92,0.00,,,0.00,WUHU215WMR968SP,2013-03-03 05:00:00,
2013-03-03 00:05:00,20.1,18.0,29.90,North,0,0.0,2.2,92,0.00,,,0.00,WUHU215WMR968SP,2013-03-03 05:05:00,
2013-03-03 00:10:00,19.8,17.8,29.90,North,0,0.0,0.0,92,0.00,,,0.00,WUHU215WMR968SP,2013-03-03 05:10:00,
2013-03-03 00:15:00,19.4,17.4,29.90,North,0,0.0,0.0,92,0.00,,,0.00,WUHU215WMR968SP,2013-03-03 05:15:00,
2013-03-03 00:20:00,19.0,17.4,29.90,North,0,0.0,0.0,94,0.00,,,0.00,WUHU215WMR968SP,2013-03-03 05:20:00,
2013-03-03 00:25:00,18.5,16.9,29.90,North,0,0.0,0.0,94,0.00,,,0.00,WUHU215WMR968SP,2013-03-03 05:25:00,
2013-03-03 00:30:00,18.1,16.5,29.90,North,0,0.0,0.0,94,0.00,,,0.00,WUHU215WMR968SP,2013-03-03 05:30:00,
2013-03-03 00:35:00,17.8,16.2,29.90,North,0,0.0,0.0,94,0.00,,,0.00,WUHU215WMR968SP,2013-03-03 05:35:00,
2013-03-03 00:40:00,17.4,16.2,29.90,North,0,0.0,0.0,95,0.00,,,0.00,WUHU215WMR968SP,2013-03-03 05:40:00,
2013-03-03 00:45:00,17.1,15.9,29.90,North,0,0.0,0.0,95,0.00,,,0.00,WUHU215WMR968SP,2013-03-03 05:45:00,
2013-03-03 00:50:00,16.9,15.7,29.90,North,0,0.0,0.0,95,0.00,,,0.00,WUHU215WMR968SP,2013-03-03 05:50:00,
2013-03-03 00:55:00,16.5,15.3,29.90,North,0,0.0,0.0,95,0.00,,,0.00,WUHU215WMR968SP,2013-03-03 05:55:00,
2013-03-03 01:00:00,16.2,15.4,29.90,North,0,0.0,0.0,97,0.00,,,0.00,WUHU215WMR968SP,2013-03-03 06:00:00,
2013-03-03 01:05:00,16.0,15.2,29.90,North,0,0.0,0.0,97,0.00,,,0.00,WUHU215WMR968SP,2013-03-03 06:05:00,
2013-03-03 01:10:00,15.8,15.0,29.90,North,0,0.0,0.0,97,0.00,,,0.00,WUHU215WMR968SP,2013-03-03 06:10:00,
2013-03-03 01:15:00,15.4,15.1,29.90,North,0,0.0,0.0,99,0.00,,,0.00,WUHU215WMR968SP,2013-03-03 06:15:00,
2013-03-03 01:20:00,15.3,15.0,29.90,North,0,0.0,0.0,99,0.00,,,0.00,WUHU215WMR968SP,2013-03-03 06:20:00,
2013-03-03 01:25:00,15.3,15.0,29.90,North,0,0.0,0.0,99,0.00,,,0.00,WUHU215WMR968SP,2013-03-03 06:25:00,
2013-03-03 01:30:00,15.1,14.8,29.90,North,0,0.0,0.0,99,0.00,,,0.00,WUHU215WMR968SP,2013-03-03 06:30:00,
2013-03-03 01:35:00,15.1,15.1,29.90,North,0,0.0,0.0,100,0.00,,,0.00,WUHU215WMR968SP,2013-03-03 06:35:00,
2013-03-03 01:40:00,14.9,14.9,29.90,North,0,0.0,0.0,100,0.00,,,0.00,WUHU215WMR968SP,2013-03-03 06:40:00,
2013-03-03 01:45:00,14.5,14.5,29.90,North,0,0.0,0.0,100,0.00,,,0.00,WUHU215WMR968SP,2013-03-03 06:45:00,
2013-03-03 01:50:00,14.4,14.4,29.90,North,0,0.0,0.0,100,0.00,,,0.00,WUHU215WMR968SP,2013-03-03 06:50:00,
2013-03-03 01:55:00,14.4,14.4,29.90,North,0,0.0,0.0,100,0.00,,,0.00,WUHU215WMR968SP,2013-03-03 06:55:00,
2013-03-03 02:00:00,14.4,14.4,29.90,North,0,0.0,0.0,100,0.00,,,0.00,WUHU215WMR968SP,2013-03-03 07:00:00,
2013-03-03 02:05:00,14.2,14.2,29.90,North,0,0.0,0.0,100,0.00,,,0.00,WUHU215WMR968SP,2013-03-03 07:05:00,
2013-03-03 02:10:00,14.2,14.2,29.90,North,0,0.0,0.0,100,0.00,,,0.00,WUHU215WMR968SP,2013-03-03 07:10:00,
2013-03-03 02:15:00,14.4,14.4,29.90,North,0,0.0,0.0,100,0.00,,,0.00,WUHU215WMR968SP,2013-03-03 07:15:00,
2013-03-03 02:20:00,14.4,14.4,29.90,North,0,0.0,0.0,100,0.00,,,0.00,WUHU215WMR968SP,2013-03-03 07:20:00,
2013-03-03 02:25:00,14.5,14.5,29.90,North,0,0.0,0.0,100,0.00,,,0.00,WUHU215WMR968SP,2013-03-03 07:25:00,
2013-03-03 02:30:00,14.5,14.5,29.90,North,0,0.0,0.0,100,0.00,,,0.00,WUHU215WMR968SP,2013-03-03 07:30:00,
2013-03-03 02:35:00,14.5,14.5,29.90,North,0,0.0,0.0,100,0.00,,,0.00,WUHU215WMR968SP,2013-03-03 07:35:00,
2013-03-03 02:40:00,14.5,14.5,29.90,North,0,0.0,0.0,100,0.00,,,0.00,WUHU215WMR968SP,2013-03-03 07:40:00,
2013-03-03 02:45:00,14.7,14.7,29.90,North,0,0.0,0.0,100,0.00,,,0.00,WUHU215WMR968SP,2013-03-03 07:45:00,
2013-03-03 02:50:00,14.9,14.9,29.90,North,0,0.0,0.0,100,0.00,,,0.00,WUHU215WMR968SP,2013-03-03 07:50:00,
2013-03-03 02:55:00,15.1,15.1,29.90,North,0,0.0,0.0,100,0.00,,,0.00,WUHU215WMR968SP,2013-03-03 07:55:00,
2013-03-03 03:00:00,15.3,15.3,29.90,North,0,0.0,0.0,100,0.00,,,0.00,WUHU215WMR968SP,2013-03-03 08:00:00,
2013-03-03 03:05:00,15.8,15.8,29.90,North,0,0.0,0.0,100,0.00,,,0.00,WUHU215WMR968SP,2013-03-03 08:05:00,
2013-03-03 03:10:00,16.0,16.0,29.90,North,0,0.0,2.2,100,0.00,,,0.00,WUHU215WMR968SP,2013-03-03 08:10:00,
2013-03-03 03:15:00,16.2,16.2,29.90,North,0,0.0,2.2,100,0.00,,,0.00,WUHU215WMR968SP,2013-03-03 08:15:00,
2013-03-03 03:20:00,16.5,16.5,29.87,North,0,0.0,0.0,100,0.00,,,0.00,WUHU215WMR968SP,2013-03-03 08:20:00,
2013-03-03 03:25:00,16.5,16.5,29.87,North,0,0.0,0.0,100,0.00,,,0.00,WUHU215WMR968SP,2013-03-03 08:25:00,
2013-03-03 03:30:00,16.7,16.7,29.87,North,0,0.0,0.0,100,0.00,,,0.00,WUHU215WMR968SP,2013-03-03 08:30:00,
2013-03-03 03:35:00,16.7,16.7,29.87,North,0,0.0,2.2,100,0.00,,,0.00,WUHU215WMR968SP,2013-03-03 08:35:00,
2013-03-03 03:40:00,16.7,16.7,29.87,North,0,0.0,2.7,100,0.00,,,0.00,WUHU215WMR968SP,2013-03-03 08:40:00,
2013-03-03 03:45:00,16.7,16.7,29.87,WNW,283,0.0,2.7,100,0.00,,,0.00,WUHU215WMR968SP,2013-03-03 08:45:00,
2013-03-03 03:50:00,16.7,16.7,29.87,WNW,283,0.0,2.7,100,0.00,,,0.00,WUHU215WMR968SP,2013-03-03 08:50:00,
2013-03-03 03:55:00,16.7,16.7,29.87,WNW,283,0.0,0.0,100,0.00,,,0.00,WUHU215WMR968SP,2013-03-03 08:55:00,
2013-03-03 04:00:00,16.5,16.5,29.87,WNW,283,0.0,0.0,100,0.00,,,0.00,WUHU215WMR968SP,2013-03-03 09:00:00,
2013-03-03 04:05:00,16.2,16.2,29.87,WNW,283,0.0,0.0,100,0.00,,,0.00,WUHU215WMR968SP,2013-03-03 09:05:00,
2013-03-03 04:10:00,16.2,16.2,29.87,WNW,283,0.0,0.0,100,0.00,,,0.00,WUHU215WMR968SP,2013-03-03 09:10:00,
2013-03-03 04:15:00,16.3,16.3,29.87,WNW,283,0.0,3.1,100,0.00,,,0.00,WUHU215WMR968SP,2013-03-03 09:15:00,
2013-03-03 04:20:00,16.3,16.3,29.87,WNW,291,0.0,3.1,100,0.00,,,0.00,WUHU215WMR968SP,2013-03-03 09:20:00,
2013-03-03 04:25:00,16.5,16.5,29.87,WNW,291,0.0,3.1,100,0.00,,,0.00,WUHU215WMR968SP,2013-03-03 09:25:00,
2013-03-03 04:31:00,16.9,16.9,29.87,WNW,291,0.0,3.1,100,0.00,,,0.00,WUHU215WMR968SP,2013-03-03 09:31:00,
2013-03-03 04:36:00,16.9,16.9,29.87,WNW,291,0.0,2.7,100,0.00,,,0.00,WUHU215WMR968SP,2013-03-03 09:36:00,
2013-03-03 04:41:00,16.7,16.7,29.87,WNW,291,0.0,2.7,100,0.00,,,0.00,WUHU215WMR968SP,2013-03-03 09:41:00,
2013-03-03 04:46:00,16.5,16.5,29.87,WNW,291,0.0,0.0,100,0.00,,,0.00,WUHU215WMR968SP,2013-03-03 09:46:00,
2013-03-03 04:51:00,16.2,16.2,29.87,WNW,291,0.0,2.7,100,0.00,,,0.00,WUHU215WMR968SP,2013-03-03 09:51:00,
2013-03-03 04:56:00,16.2,16.2,29.87,WNW,291,0.0,2.7,100,0.00,,,0.00,WUHU215WMR968SP,2013-03-03 09:56:00,
2013-03-03 05:01:00,16.0,16.0,29.87,WNW,291,0.0,2.2,100,0.00,,,0.00,WUHU215WMR968SP,2013-03-03 10:01:00,
2013-03-03 05:06:00,15.8,15.8,29.87,WNW,291,0.0,0.0,100,0.00,,,0.00,WUHU215WMR968SP,2013-03-03 10:06:00,
2013-03-03 05:11:00,15.4,15.4,29.87,WNW,291,0.0,2.2,100,0.00,,,0.00,WUHU215WMR968SP,2013-03-03 10:11:00,
2013-03-03 05:16:00,15.3,15.3,29.87,WNW,291,0.0,2.2,100,0.00,,,0.00,WUHU215WMR968SP,2013-03-03 10:16:00,
2013-03-03 05:21:00,14.9,14.9,29.87,WNW,291,0.0,0.0,100,0.00,,,0.00,WUHU215WMR968SP,2013-03-03 10:21:00,
2013-03-03 05:26:00,14.4,14.4,29.87,WNW,291,0.0,0.0,100,0.00,,,0.00,WUHU215WMR968SP,2013-03-03 10:26:00,
2013-03-03 05:31:00,13.8,13.8,29.87,WNW,291,0.0,0.0,100,0.00,,,0.00,WUHU215WMR968SP,2013-03-03 10:31:00,
2013-03-03 05:36:00,13.5,13.5,29.87,WNW,291,0.0,0.0,100,0.00,,,0.00,WUHU215WMR968SP,2013-03-03 10:36:00,
2013-03-03 05:41:00,12.9,12.9,29.87,WNW,291,0.0,0.0,100,0.00,,,0.00,WUHU215WMR968SP,2013-03-03 10:41:00,
2013-03-03 05:46:00,12.6,12.6,29.84,WNW,291,0.0,0.0,100,0.00,,,0.00,WUHU215WMR968SP,2013-03-03 10:46:00,
2013-03-03 05:52:00,12.2,12.2,29.84,WNW,291,0.0,0.0,100,0.00,,,0.00,WUHU215WMR968SP,2013-03-03 10:52:00,
2013-03-03 05:57:00,11.8,11.8,29.84,WNW,291,0.0,0.0,100,0.00,,,0.00,WUHU215WMR968SP,2013-03-03 10:57:00,
2013-03-03 06:02:00,11.7,11.7,29.87,WNW,291,0.0,0.0,100,0.00,,,0.00,WUHU215WMR968SP,2013-03-03 11:02:00,
2013-03-03 06:07:00,11.3,11.3,29.87,WNW,291,0.0,0.0,100,0.00,,,0.00,WUHU215WMR968SP,2013-03-03 11:07:00,
2013-03-03 06:12:00,11.1,11.1,29.87,WNW,291,0.0,0.0,100,0.00,,,0.00,WUHU215WMR968SP,2013-03-03 11:12:00,
2013-03-03 06:17:00,10.9,10.9,29.87,WNW,291,0.0,0.0,100,0.00,,,0.00,WUHU215WMR968SP,2013-03-03 11:17:00,
2013-03-03 06:22:00,10.8,10.8,29.87,WNW,291,0.0,0.0,100,0.00,,,0.00,WUHU215WMR968SP,2013-03-03 11:22:00,
2013-03-03 06:27:00,10.9,10.9,29.87,WNW,291,0.0,0.0,100,0.00,,,0.00,WUHU215WMR968SP,2013-03-03 11:27:00,
2013-03-03 06:32:00,10.9,10.9,29.87,WNW,291,0.0,0.0,100,0.00,,,0.00,WUHU215WMR968SP,2013-03-03 11:32:00,
2013-03-03 06:37:00,10.9,10.9,29.87,WNW,291,0.0,0.0,100,0.00,,,0.00,WUHU215WMR968SP,2013-03-03 11:37:00,
2013-03-03 06:42:00,10.9,10.9,29.87,WNW,291,0.0,0.0,100,0.00,,,0.00,WUHU215WMR968SP,2013-03-03 11:42:00,
2013-03-03 06:47:00,10.9,10.9,29.87,WNW,291,0.0,0.0,100,0.00,,,0.00,WUHU215WMR968SP,2013-03-03 11:47:00,
2013-03-03 06:52:00,11.1,11.1,29.87,WNW,291,0.0,0.0,100,0.00,,,0.00,WUHU215WMR968SP,2013-03-03 11:52:00,
2013-03-03 06:58:00,11.1,11.1,29.87,WNW,291,0.0,0.0,100,0.00,,,0.00,WUHU215WMR968SP,2013-03-03 11:58:00,
2013-03-03 07:03:00,11.1,11.1,29.87,WNW,291,0.0,0.0,100,0.00,,,0.00,WUHU215WMR968SP,2013-03-03 12:03:00,
2013-03-03 07:08:00,11.3,11.3,29.87,WNW,291,0.0,0.0,100,0.00,,,0.00,WUHU215WMR968SP,2013-03-03 12:08:00,
2013-03-03 07:13:00,11.3,11.3,29.87,WNW,291,0.0,0.0,100,0.00,,,0.00,WUHU215WMR968SP,2013-03-03 12:13:00,
2013-03-03 07:18:00,11.3,11.3,29.90,WNW,291,0.0,0.0,100,0.00,,,0.00,WUHU215WMR968SP,2013-03-03 12:18:00,
2013-03-03 07:23:00,11.5,11.5,29.90,WNW,291,0.0,0.0,100,0.00,,,0.00,WUHU215WMR968SP,2013-03-03 12:23:00,
2013-03-03 07:28:00,11.8,11.8,29.90,WNW,291,0.0,0.0,100,0.00,,,0.00,WUHU215WMR968SP,2013-03-03 12:28:00,
2013-03-03 07:33:00,12.0,12.0,29.87,WNW,291,0.0,0.0,100,0.00,,,0.00,WUHU215WMR968SP,2013-03-03 12:33:00,
2013-03-03 07:38:00,12.0,12.0,29.87,WNW,291,0.0,0.0,100,0.00,,,0.00,WUHU215WMR968SP,2013-03-03 12:38:00,
2013-03-03 07:43:00,12.0,12.0,29.87,WNW,291,0.0,0.0,100,0.00,,,0.00,WUHU215WMR968SP,2013-03-03 12:43:00,
2013-03-03 07:48:00,12.0,12.0,29.90,WNW,291,0.0,0.0,100,0.00,,,0.00,WUHU215WMR968SP,2013-03-03 12:48:00,
2013-03-03 07:53:00,11.8,11.8,29.90,WNW,291,0.0,0.0,100,0.00,,,0.00,WUHU215WMR968SP,2013-03-03 12:53:00,
2013-03-03 07:58:00,11.8,11.8,29.90,WNW,291,0.0,0.0,100,0.00,,,0.00,WUHU215WMR968SP,2013-03-03 12:58:00,
2013-03-03 08:03:00,11.8,11.8,29.90,WNW,291,0.0,0.0,100,0.00,,,0.00,WUHU215WMR968SP,2013-03-03 13:03:00,
2013-03-03 08:08:00,12.0,12.0,29.90,WNW,291,0.0,0.0,100,0.00,,,0.00,WUHU215WMR968SP,2013-03-03 13:08:00,
2013-03-03 08:13:00,12.0,12.0,29.90,WNW,291,0.0,0.0,100,0.00,,,0.00,WUHU215WMR968SP,2013-03-03 13:13:00,
2013-03-03 08:18:00,12.2,12.2,29.90,WNW,291,0.0,0.0,100,0.00,,,0.00,WUHU215WMR968SP,2013-03-03 13:18:00,
2013-03-03 08:23:00,12.6,12.6,29.90,WNW,291,0.0,0.0,100,0.00,,,0.00,WUHU215WMR968SP,2013-03-03 13:23:00,
2013-03-03 08:28:00,13.3,13.3,29.90,WNW,291,0.0,0.0,100,0.00,,,0.00,WUHU215WMR968SP,2013-03-03 13:28:00,
2013-03-03 08:33:00,13.8,13.8,29.90,WNW,291,0.0,0.0,100,0.00,,,0.00,WUHU215WMR968SP,2013-03-03 13:33:00,
2013-03-03 08:38:00,15.1,15.1,29.90,WNW,291,0.0,0.0,100,0.00,,,0.00,WUHU215WMR968SP,2013-03-03 13:38:00,
2013-03-03 08:43:00,15.8,15.8,29.90,WNW,291,0.0,0.0,100,0.00,,,0.00,WUHU215WMR968SP,2013-03-03 13:43:00,
2013-03-03 08:48:00,16.9,16.9,29.90,WNW,291,0.0,0.0,100,0.00,,,0.00,WUHU215WMR968SP,2013-03-03 13:48:00,
2013-03-03 08:53:00,17.8,17.8,29.90,WNW,291,0.0,0.0,100,0.00,,,0.00,WUHU215WMR968SP,2013-03-03 13:53:00,
2013-03-03 08:58:00,18.9,18.9,29.90,WNW,291,0.0,0.0,100,0.00,,,0.00,WUHU215WMR968SP,2013-03-03 13:58:00,
2013-03-03 09:03:00,19.8,19.8,29.90,WNW,291,0.0,0.0,100,0.00,,,0.00,WUHU215WMR968SP,2013-03-03 14:03:00,
2013-03-03 09:08:00,20.5,20.5,29.90,WNW,291,0.0,2.7,100,0.00,,,0.00,WUHU215WMR968SP,2013-03-03 14:08:00,
2013-03-03 09:13:00,20.8,20.8,29.90,North,353,0.0,3.6,100,0.00,,,0.00,WUHU215WMR968SP,2013-03-03 14:13:00,
2013-03-03 09:18:00,21.2,21.2,29.90,NNW,345,0.0,4.0,100,0.00,,,0.00,WUHU215WMR968SP,2013-03-03 14:18:00,
2013-03-03 09:23:00,21.7,20.1,29.90,North,357,2.2,4.0,94,0.00,,,0.00,WUHU215WMR968SP,2013-03-03 14:23:00,
2013-03-03 09:28:00,22.1,19.6,29.90,North,0,0.0,4.0,90,0.00,,,0.00,WUHU215WMR968SP,2013-03-03 14:28:00,
2013-03-03 09:33:00,22.3,18.0,29.90,North,0,3.6,4.9,83,0.00,,,0.00,WUHU215WMR968SP,2013-03-03 14:33:00,
2013-03-03 09:38:00,22.3,17.0,29.90,North,6,4.5,6.3,80,0.00,,,0.00,WUHU215WMR968SP,2013-03-03 14:38:00,
2013-03-03 09:43:00,22.6,17.3,29.90,NNE,16,2.2,6.3,80,0.00,,,0.00,WUHU215WMR968SP,2013-03-03 14:43:00,
2013-03-03 09:48:00,23.0,17.7,29.90,North,0,2.7,4.5,80,0.00,,,0.00,WUHU215WMR968SP,2013-03-03 14:48:00,
2013-03-03 09:53:00,23.4,17.1,29.90,NNE,31,3.6,5.8,77,0.00,,,0.00,WUHU215WMR968SP,2013-03-03 14:53:00,
2013-03-03 09:58:00,23.4,16.6,29.90,NNE,15,2.7,5.8,75,0.00,,,0.00,WUHU215WMR968SP,2013-03-03 14:58:00,
2013-03-03 10:03:00,23.9,17.6,29.90,NNE,16,2.2,4.9,77,0.00,,,0.00,WUHU215WMR968SP,2013-03-03 15:03:00,
2013-03-03 10:08:00,24.4,17.6,29.90,WNW,287,3.1,4.0,75,0.00,,,0.00,WUHU215WMR968SP,2013-03-03 15:08:00,
2013-03-03 10:13:00,25.0,17.6,29.90,North,0,0.0,4.0,73,0.00,,,0.00,WUHU215WMR968SP,2013-03-03 15:13:00,
2013-03-03 10:18:00,25.3,17.4,29.90,NNE,20,4.5,6.3,71,0.00,,,0.00,WUHU215WMR968SP,2013-03-03 15:18:00,
2013-03-03 10:23:00,25.0,17.1,29.90,NW,324,4.0,6.3,71,0.00,,,0.00,WUHU215WMR968SP,2013-03-03 15:23:00,
2013-03-03 10:28:00,25.7,18.3,29.90,NW,305,0.0,6.3,73,0.00,,,0.00,WUHU215WMR968SP,2013-03-03 15:28:00,
2013-03-03 10:33:00,26.1,18.2,29.90,NNW,338,3.1,5.8,71,0.00,,,0.00,WUHU215WMR968SP,2013-03-03 15:33:00,
2013-03-03 10:38:00,26.1,18.2,29.90,NW,313,0.0,5.8,71,0.00,,,0.00,WUHU215WMR968SP,2013-03-03 15:38:00,
2013-03-03 10:43:00,26.8,18.3,29.90,North,0,3.1,4.9,70,0.00,,,0.00,WUHU215WMR968SP,2013-03-03 15:43:00,
2013-03-03 10:58:00,27.0,17.9,29.90,WSW,254,2.7,2.7,68,0.00,,,0.00,WUHU215WMR968SP,2013-03-03 15:58:00,
2013-03-03 11:03:00,27.1,17.4,29.90,NNW,332,4.0,6.7,66,0.00,,,0.00,WUHU215WMR968SP,2013-03-03 16:03:00,
2013-03-03 11:08:00,27.0,17.3,29.90,WSW,248,3.1,8.1,66,0.00,,,0.00,WUHU215WMR968SP,2013-03-03 16:08:00,
2013-03-03 11:13:00,27.3,18.2,29.90,NW,324,3.1,8.1,68,0.00,,,0.00,WUHU215WMR968SP,2013-03-03 16:13:00,
2013-03-03 11:18:00,27.9,18.8,29.90,NNW,344,5.8,9.6,68,0.00,,,0.00,WUHU215WMR968SP,2013-03-03 16:18:00,
2013-03-03 11:23:00,27.7,16.8,29.90,North,11,4.5,10.5,63,0.00,,,0.00,WUHU215WMR968SP,2013-03-03 16:23:00,
2013-03-03 11:28:00,28.0,17.7,29.90,NW,321,4.9,10.5,65,0.00,,,0.00,WUHU215WMR968SP,2013-03-03 16:28:00,
2013-03-03 11:33:00,28.6,17.6,29.90,WNW,290,3.1,8.7,63,0.00,,,0.00,WUHU215WMR968SP,2013-03-03 16:33:00,
2013-03-03 11:38:00,28.8,16.5,29.90,NNW,337,4.9,8.7,60,0.00,,,0.00,WUHU215WMR968SP,2013-03-03 16:38:00,
2013-03-03 11:43:00,29.1,17.4,29.90,NW,306,4.5,8.7,61,0.00,,,0.00,WUHU215WMR968SP,2013-03-03 16:43:00,
2013-03-03 11:48:00,29.7,18.0,29.90,NNE,12,2.7,8.7,61,0.00,,,0.00,WUHU215WMR968SP,2013-03-03 16:48:00,
2013-03-03 11:53:00,29.8,16.8,29.90,NNE,14,4.0,10.5,58,0.00,,,0.00,WUHU215WMR968SP,2013-03-03 16:53:00,
2013-03-03 11:58:00,29.5,16.5,29.90,NNW,332,7.2,11.0,58,0.00,,,0.00,WUHU215WMR968SP,2013-03-03 16:58:00,
2013-03-03 12:03:00,29.1,16.1,29.90,NW,321,6.7,11.0,58,0.00,,,0.00,WUHU215WMR968SP,2013-03-03 17:03:00,
2013-03-03 12:08:00,28.6,16.3,29.90,NNW,341,5.4,11.4,60,0.00,,,0.00,WUHU215WMR968SP,2013-03-03 17:08:00,
2013-03-03 12:13:00,28.0,16.4,29.90,NW,324,5.8,11.4,61,0.00,,,0.00,WUHU215WMR968SP,2013-03-03 17:13:00,
2013-03-03 12:18:00,28.4,18.0,29.87,NW,311,2.7,8.7,65,0.00,,,0.00,WUHU215WMR968SP,2013-03-03 17:18:00,
2013-03-03 12:23:00,29.5,18.5,29.87,North,357,2.7,7.6,63,0.00,,,0.00,WUHU215WMR968SP,2013-03-03 17:23:00,
2013-03-03 12:28:00,29.7,17.4,29.87,North,353,2.2,8.3,60,0.00,,,0.00,WUHU215WMR968SP,2013-03-03 17:28:00,
2013-03-03 12:33:00,30.0,17.6,29.87,North,5,2.7,8.3,60,0.00,,,0.00,WUHU215WMR968SP,2013-03-03 17:33:00,
2013-03-03 12:38:00,31.1,18.7,29.87,SW,214,2.7,8.3,60,0.00,,,0.00,WUHU215WMR968SP,2013-03-03 17:38:00,
2013-03-03 12:43:00,31.8,18.6,29.87,NW,307,0.0,6.3,58,0.00,,,0.00,WUHU215WMR968SP,2013-03-03 17:43:00,
2013-03-03 12:48:00,31.8,17.2,29.87,West,260,3.1,6.3,54,0.00,,,0.00,WUHU215WMR968SP,2013-03-03 17:48:00,
2013-03-03 12:53:00,32.0,18.1,29.87,WNW,296,3.1,6.3,56,0.00,,,0.00,WUHU215WMR968SP,2013-03-03 17:53:00,
2013-03-03 12:58:00,32.5,18.6,29.87,NW,320,3.6,5.8,56,0.00,,,0.00,WUHU215WMR968SP,2013-03-03 17:58:00,
2013-03-03 13:03:00,32.2,17.6,29.87,NNW,338,4.5,7.6,54,0.00,,,0.00,WUHU215WMR968SP,2013-03-03 18:03:00,
2013-03-03 13:08:00,31.8,17.2,29.87,NNW,337,2.7,7.6,54,0.00,,,0.00,WUHU215WMR968SP,2013-03-03 18:08:00,
2013-03-03 13:13:00,32.2,17.6,29.87,NNW,327,3.6,7.6,54,0.00,,,0.00,WUHU215WMR968SP,2013-03-03 18:13:00,
2013-03-03 13:18:00,32.5,17.9,29.87,NNE,12,4.0,7.6,54,0.00,,,0.00,WUHU215WMR968SP,2013-03-03 18:18:00,
2013-03-03 13:23:00,32.4,17.8,29.87,WNW,292,4.9,8.3,54,0.00,,,0.00,WUHU215WMR968SP,2013-03-03 18:23:00,
2013-03-03 13:28:00,31.5,16.9,29.87,NNE,16,6.7,8.3,54,0.00,,,0.00,WUHU215WMR968SP,2013-03-03 18:28:00,
2013-03-03 13:33:00,30.6,16.1,29.87,North,353,6.7,9.6,54,0.00,,,0.00,WUHU215WMR968SP,2013-03-03 18:33:00,
2013-03-03 13:38:00,30.6,16.1,29.87,NNW,345,3.6,9.6,54,0.00,,,0.00,WUHU215WMR968SP,2013-03-03 18:38:00,
2013-03-03 13:43:00,30.9,17.1,29.87,NE,35,7.6,8.7,56,0.00,,,0.00,WUHU215WMR968SP,2013-03-03 18:43:00,
2013-03-03 13:48:00,30.7,16.9,29.84,North,0,2.2,8.7,56,0.00,,,0.00,WUHU215WMR968SP,2013-03-03 18:48:00,
2013-03-03 13:53:00,30.9,17.1,29.84,NNE,14,2.2,8.3,56,0.00,,,0.00,WUHU215WMR968SP,2013-03-03 18:53:00,
2013-03-03 13:58:00,32.0,18.1,29.84,NNW,331,0.0,8.1,56,0.00,,,0.00,WUHU215WMR968SP,2013-03-03 18:58:00,
2013-03-03 14:03:00,32.9,18.2,29.87,North,8,3.6,5.8,54,0.00,,,0.00,WUHU215WMR968SP,2013-03-03 19:03:00,
2013-03-03 14:08:00,33.1,18.4,29.87,North,4,2.2,6.3,54,0.00,,,0.00,WUHU215WMR968SP,2013-03-03 19:08:00,
2013-03-03 14:13:00,33.6,18.9,29.87,NNE,19,4.5,6.3,54,0.00,,,0.00,WUHU215WMR968SP,2013-03-03 19:13:00,
2013-03-03 14:18:00,34.0,18.5,29.87,WNW,295,2.7,5.4,53,0.00,,,0.00,WUHU215WMR968SP,2013-03-03 19:18:00,
2013-03-03 14:23:00,34.2,18.7,29.87,NE,42,3.1,5.4,53,0.00,,,0.00,WUHU215WMR968SP,2013-03-03 19:23:00,
2013-03-03 14:28:00,33.4,17.9,29.87,NW,320,2.7,8.3,53,0.00,,,0.00,WUHU215WMR968SP,2013-03-03 19:28:00,
2013-03-03 14:33:00,33.3,17.8,29.84,North,0,5.4,8.3,53,0.00,,,0.00,WUHU215WMR968SP,2013-03-03 19:33:00,
2013-03-03 14:38:00,32.9,17.5,29.84,West,281,3.6,8.3,53,0.00,,,0.00,WUHU215WMR968SP,2013-03-03 19:38:00,
2013-03-03 14:43:00,33.4,17.9,29.84,NNW,344,4.0,8.3,53,0.00,,,0.00,WUHU215WMR968SP,2013-03-03 19:43:00,
2013-03-03 14:48:00,33.3,17.8,29.84,NNE,18,2.2,7.6,53,0.00,,,0.00,WUHU215WMR968SP,2013-03-03 19:48:00,
2013-03-03 14:53:00,34.0,18.5,29.84,NW,310,3.6,4.9,53,0.00,,,0.00,WUHU215WMR968SP,2013-03-03 19:53:00,
2013-03-03 14:58:00,34.5,19.0,29.84,NNW,339,2.7,5.8,53,0.00,,,0.00,WUHU215WMR968SP,2013-03-03 19:58:00,
2013-03-03 15:03:00,34.5,19.0,29.84,West,264,2.2,5.8,53,0.00,,,0.00,WUHU215WMR968SP,2013-03-03 20:03:00,
2013-03-03 15:08:00,34.9,18.5,29.84,NW,314,2.7,7.6,51,0.00,,,0.00,WUHU215WMR968SP,2013-03-03 20:08:00,
2013-03-03 15:13:00,34.7,18.4,29.84,West,278,3.1,7.6,51,0.00,,,0.00,WUHU215WMR968SP,2013-03-03 20:13:00,
2013-03-03 15:18:00,34.9,19.3,29.84,NW,316,0.0,5.8,53,0.00,,,0.00,WUHU215WMR968SP,2013-03-03 20:18:00,
2013-03-03 15:23:00,35.2,19.6,29.84,North,9,0.0,5.8,53,0.00,,,0.00,WUHU215WMR968SP,2013-03-03 20:23:00,
2013-03-03 15:28:00,35.1,19.5,29.84,NNW,333,3.6,8.3,53,0.00,,,0.00,WUHU215WMR968SP,2013-03-03 20:28:00,
2013-03-03 15:33:00,35.1,19.5,29.84,South,176,3.1,8.3,53,0.00,,,0.00,WUHU215WMR968SP,2013-03-03 20:33:00,
2013-03-03 15:38:00,35.4,19.8,29.84,West,278,4.5,6.3,53,0.00,,,0.00,WUHU215WMR968SP,2013-03-03 20:38:00,
2013-03-03 15:43:00,35.2,19.6,29.84,WSW,241,2.7,6.3,53,0.00,,,0.00,WUHU215WMR968SP,2013-03-03 20:43:00,
2013-03-03 15:48:00,35.2,19.6,29.84,North,357,3.1,4.9,53,0.00,,,0.00,WUHU215WMR968SP,2013-03-03 20:48:00,
2013-03-03 15:53:00,34.3,18.8,29.84,West,274,2.2,6.7,53,0.00,,,0.00,WUHU215WMR968SP,2013-03-03 20:53:00,
2013-03-03 15:58:00,34.3,18.8,29.84,East,98,2.7,6.7,53,0.00,,,0.00,WUHU215WMR968SP,2013-03-03 20:58:00,
2013-03-03 16:03:00,34.0,19.3,29.84,SSE,166,4.0,6.3,54,0.00,,,0.00,WUHU215WMR968SP,2013-03-03 21:03:00,
2013-03-03 16:08:00,34.2,19.4,29.84,South,181,3.6,7.2,54,0.00,,,0.00,WUHU215WMR968SP,2013-03-03 21:08:00,
2013-03-03 16:13:00,34.5,19.7,29.84,West,261,0.0,7.2,54,0.00,,,0.00,WUHU215WMR968SP,2013-03-03 21:13:00,
2013-03-03 16:18:00,34.5,19.7,29.84,North,357,2.2,7.6,54,0.00,,,0.00,WUHU215WMR968SP,2013-03-03 21:18:00,
2013-03-03 16:23:00,34.5,19.7,29.84,North,353,4.0,7.6,54,0.00,,,0.00,WUHU215WMR968SP,2013-03-03 21:23:00,
2013-03-03 16:28:00,34.3,19.5,29.84,SSE,166,3.6,7.2,54,0.00,,,0.00,WUHU215WMR968SP,2013-03-03 21:28:00,
2013-03-03 16:33:00,34.3,19.5,29.84,West,266,2.2,7.2,54,0.00,,,0.00,WUHU215WMR968SP,2013-03-03 21:33:00,
2013-03-03 16:38:00,34.3,19.5,29.84,SSE,153,2.7,4.0,54,0.00,,,0.00,WUHU215WMR968SP,2013-03-03 21:38:00,
2013-03-03 16:43:00,34.0,19.3,29.84,NNE,29,2.2,6.3,54,0.00,,,0.00,WUHU215WMR968SP,2013-03-03 21:43:00,
2013-03-03 16:48:00,34.2,19.4,29.84,West,264,2.7,6.3,54,0.00,,,0.00,WUHU215WMR968SP,2013-03-03 21:48:00,
2013-03-03 16:53:00,34.0,19.3,29.84,WSW,258,4.0,5.4,54,0.00,,,0.00,WUHU215WMR968SP,2013-03-03 21:53:00,
2013-03-03 16:58:00,33.4,19.4,29.84,WNW,289,3.6,7.6,56,0.00,,,0.00,WUHU215WMR968SP,2013-03-03 21:58:00,
2013-03-03 17:03:00,32.5,19.3,29.84,West,261,2.2,7.6,58,0.00,,,0.00,WUHU215WMR968SP,2013-03-03 22:03:00,
2013-03-03 17:08:00,31.6,18.5,29.84,SSW,194,2.7,5.8,58,0.00,,,0.00,WUHU215WMR968SP,2013-03-03 22:08:00,
2013-03-03 17:13:00,31.1,19.3,29.84,West,274,2.2,5.8,61,0.00,,,0.00,WUHU215WMR968SP,2013-03-03 22:13:00,
2013-03-03 17:18:00,30.2,19.8,29.84,North,9,3.6,5.8,65,0.00,,,0.00,WUHU215WMR968SP,2013-03-03 22:18:00,
2013-03-03 17:23:00,30.0,20.2,29.84,West,265,3.1,5.4,66,0.00,,,0.00,WUHU215WMR968SP,2013-03-03 22:23:00,
2013-03-03 17:28:00,29.7,19.9,29.84,NNW,329,0.0,6.3,66,0.00,,,0.00,WUHU215WMR968SP,2013-03-03 22:28:00,
2013-03-03 17:33:00,29.5,20.9,29.87,West,276,3.1,6.3,70,0.00,,,0.00,WUHU215WMR968SP,2013-03-03 22:33:00,
2013-03-03 17:38:00,29.3,20.7,29.87,West,271,3.6,5.4,70,0.00,,,0.00,WUHU215WMR968SP,2013-03-03 22:38:00,
2013-03-03 17:43:00,28.9,20.3,29.87,WNW,291,2.7,5.8,70,0.00,,,0.00,WUHU215WMR968SP,2013-03-03 22:43:00,
2013-03-03 17:48:00,28.6,20.0,29.87,West,261,2.2,5.8,70,0.00,,,0.00,WUHU215WMR968SP,2013-03-03 22:48:00,
2013-03-03 17:53:00,28.4,20.4,29.87,WNW,295,2.2,4.0,71,0.00,,,0.00,WUHU215WMR968SP,2013-03-03 22:53:00,
2013-03-03 17:58:00,28.2,20.2,29.87,WNW,289,0.0,4.0,71,0.00,,,0.00,WUHU215WMR968SP,2013-03-03 22:58:00,
2013-03-03 18:03:00,28.0,20.0,29.87,WNW,301,2.7,6.3,71,0.00,,,0.00,WUHU215WMR968SP,2013-03-03 23:03:00,
2013-03-03 18:08:00,27.9,19.9,29.87,WNW,293,2.7,6.3,71,0.00,,,0.00,WUHU215WMR968SP,2013-03-03 23:08:00,
2013-03-03 18:13:00,27.5,19.5,29.87,West,278,2.2,4.0,71,0.00,,,0.00,WUHU215WMR968SP,2013-03-03 23:13:00,
2013-03-03 18:18:00,27.3,19.3,29.84,West,268,2.7,4.9,71,0.00,,,0.00,WUHU215WMR968SP,2013-03-03 23:18:00,
2013-03-03 18:23:00,27.1,19.7,29.84,SW,220,0.0,4.9,73,0.00,,,0.00,WUHU215WMR968SP,2013-03-03 23:23:00,
2013-03-03 18:28:00,27.0,19.6,29.84,West,264,0.0,3.6,73,0.00,,,0.00,WUHU215WMR968SP,2013-03-03 23:28:00,
2013-03-03 18:33:00,26.6,19.2,29.87,WNW,293,0.0,4.0,73,0.00,,,0.00,WUHU215WMR968SP,2013-03-03 23:33:00,
2013-03-03 18:38:00,26.4,19.5,29.87,WNW,289,0.0,4.0,75,0.00,,,0.00,WUHU215WMR968SP,2013-03-03 23:38:00,
2013-03-03 18:43:00,26.1,19.2,29.87,WNW,288,0.0,3.6,75,0.00,,,0.00,WUHU215WMR968SP,2013-03-03 23:43:00,
2013-03-03 18:48:00,26.1,19.7,29.87,WNW,300,0.0,4.0,77,0.00,,,0.00,WUHU215WMR968SP,2013-03-03 23:48:00,
2013-03-03 18:53:00,25.9,19.6,29.87,NW,320,0.0,4.0,77,0.00,,,0.00,WUHU215WMR968SP,2013-03-03 23:53:00,
2013-03-03 18:58:00,25.7,19.4,29.87,WNW,298,0.0,4.0,77,0.00,,,0.00,WUHU215WMR968SP,2013-03-03 23:58:00,
2013-03-03 19:03:00,25.5,19.2,29.87,North,350,0.0,4.0,77,0.00,,,0.00,WUHU215WMR968SP,2013-03-04 00:03:00,
2013-03-03 19:08:00,25.5,19.7,29.87,West,265,0.0,4.0,78,0.00,,,0.00,WUHU215WMR968SP,2013-03-04 00:08:00,
2013-03-03 19:13:00,25.3,19.5,29.87,WNW,290,0.0,4.0,78,0.00,,,0.00,WUHU215WMR968SP,2013-03-04 00:13:00,
2013-03-03 19:18:00,25.3,19.5,29.87,WNW,303,3.1,4.0,78,0.00,,,0.00,WUHU215WMR968SP,2013-03-04 00:18:00,
2013-03-03 19:23:00,25.2,19.4,29.87,NW,321,2.2,4.0,78,0.00,,,0.00,WUHU215WMR968SP,2013-03-04 00:23:00,
2013-03-03 19:28:00,25.0,19.2,29.87,NNW,334,0.0,4.0,78,0.00,,,0.00,WUHU215WMR968SP,2013-03-04 00:28:00,
2013-03-03 19:33:00,24.8,19.5,29.87,West,271,0.0,3.6,80,0.00,,,0.00,WUHU215WMR968SP,2013-03-04 00:33:00,
2013-03-03 19:38:00,24.6,19.3,29.87,West,275,0.0,5.4,80,0.00,,,0.00,WUHU215WMR968SP,2013-03-04 00:38:00,
2013-03-03 19:43:00,24.6,19.3,29.87,West,271,0.0,5.4,80,0.00,,,0.00,WUHU215WMR968SP,2013-03-04 00:43:00,
2013-03-03 19:48:00,24.4,19.6,29.87,WNW,291,0.0,4.0,82,0.00,,,0.00,WUHU215WMR968SP,2013-03-04 00:48:00,
2013-03-03 19:53:00,24.3,19.5,29.87,NNW,329,0.0,4.0,82,0.00,,,0.00,WUHU215WMR968SP,2013-03-04 00:53:00,
2013-03-03 19:58:00,24.1,18.8,29.87,NW,304,0.0,3.1,80,0.00,,,0.00,WUHU215WMR968SP,2013-03-04 00:58:00,
2013-03-03 20:03:00,23.9,18.6,29.87,North,353,0.0,3.1,80,0.00,,,0.00,WUHU215WMR968SP,2013-03-04 01:03:00,
2013-03-03 20:08:00,23.7,18.9,29.87,West,261,0.0,3.6,82,0.00,,,0.00,WUHU215WMR968SP,2013-03-04 01:08:00,
2013-03-03 20:13:00,23.5,18.7,29.87,WNW,297,2.2,3.6,82,0.00,,,0.00,WUHU215WMR968SP,2013-03-04 01:13:00,
2013-03-03 20:19:00,23.5,19.2,29.90,North,353,0.0,4.0,83,0.00,,,0.00,WUHU215WMR968SP,2013-03-04 01:19:00,
2013-03-03 20:24:00,23.5,19.2,29.90,NNW,329,0.0,4.0,83,0.00,,,0.00,WUHU215WMR968SP,2013-03-04 01:24:00,
2013-03-03 20:29:00,23.5,19.2,29.90,NW,322,2.2,4.0,83,0.00,,,0.00,WUHU215WMR968SP,2013-03-04 01:29:00,
2013-03-03 20:34:00,23.5,19.2,29.90,NW,318,2.7,3.6,83,0.00,,,0.00,WUHU215WMR968SP,2013-03-04 01:34:00,
2013-03-03 20:39:00,23.4,19.1,29.90,West,277,0.0,4.0,83,0.00,,,0.00,WUHU215WMR968SP,2013-03-04 01:39:00,
2013-03-03 20:44:00,23.2,18.4,29.90,West,277,0.0,4.0,82,0.00,,,0.00,WUHU215WMR968SP,2013-03-04 01:44:00,
2013-03-03 20:49:00,23.0,18.7,29.87,NNW,331,0.0,4.0,83,0.00,,,0.00,WUHU215WMR968SP,2013-03-04 01:49:00,
2013-03-03 20:54:00,22.8,18.5,29.87,NNW,330,0.0,4.0,83,0.00,,,0.00,WUHU215WMR968SP,2013-03-04 01:54:00,
2013-03-03 20:59:00,22.8,18.5,29.87,NNW,333,0.0,4.0,83,0.00,,,0.00,WUHU215WMR968SP,2013-03-04 01:59:00,
2013-03-03 21:04:00,22.6,18.7,29.90,NNW,333,0.0,3.1,85,0.00,,,0.00,WUHU215WMR968SP,2013-03-04 02:04:00,
2013-03-03 21:09:00,22.5,18.6,29.90,NW,312,0.0,2.7,85,0.00,,,0.00,WUHU215WMR968SP,2013-03-04 02:09:00,
2013-03-03 21:14:00,22.3,18.4,29.90,NW,312,0.0,2.2,85,0.00,,,0.00,WUHU215WMR968SP,2013-03-04 02:14:00,
2013-03-03 21:20:00,21.9,18.1,29.90,NW,312,0.0,2.2,85,0.00,,,0.00,WUHU215WMR968SP,2013-03-04 02:20:00,
2013-03-03 21:24:00,21.7,17.9,29.90,NW,312,0.0,0.0,85,0.00,,,0.00,WUHU215WMR968SP,2013-03-04 02:24:00,
2013-03-03 21:30:00,21.7,17.9,29.90,WNW,295,0.0,3.6,85,0.00,,,0.00,WUHU215WMR968SP,2013-03-04 02:30:00,
2013-03-03 21:35:00,21.7,18.3,29.90,NNW,342,0.0,3.6,87,0.00,,,0.00,WUHU215WMR968SP,2013-03-04 02:35:00,
2013-03-03 21:40:00,21.7,18.8,29.90,NNW,339,0.0,3.6,88,0.00,,,0.00,WUHU215WMR968SP,2013-03-04 02:40:00,
2013-03-03 21:45:00,21.7,18.8,29.90,North,353,2.2,4.9,88,0.00,,,0.00,WUHU215WMR968SP,2013-03-04 02:45:00,
2013-03-03 21:50:00,21.7,19.2,29.90,NNW,332,2.2,4.9,90,0.00,,,0.00,WUHU215WMR968SP,2013-03-04 02:50:00,
2013-03-03 21:55:00,21.6,19.1,29.90,NNW,338,0.0,3.6,90,0.00,,,0.00,WUHU215WMR968SP,2013-03-04 02:55:00,
2013-03-03 22:00:00,21.6,19.1,29.90,North,353,2.2,3.6,90,0.00,,,0.00,WUHU215WMR968SP,2013-03-04 03:00:00,
2013-03-03 22:05:00,21.4,18.9,29.90,North,353,0.0,3.6,90,0.00,,,0.00,WUHU215WMR968SP,2013-03-04 03:05:00,
2013-03-03 22:10:00,21.4,18.9,29.90,North,353,0.0,3.1,90,0.00,,,0.00,WUHU215WMR968SP,2013-03-04 03:10:00,
2013-03-03 22:15:00,21.2,18.7,29.90,NNW,329,0.0,3.1,90,0.00,,,0.00,WUHU215WMR968SP,2013-03-04 03:15:00,
2013-03-03 22:21:00,21.0,18.9,29.87,NNW,329,0.0,3.1,92,0.00,,,0.00,WUHU215WMR968SP,2013-03-04 03:21:00,
2013-03-03 22:25:00,20.8,18.7,29.87,NNW,330,0.0,2.7,92,0.00,,,0.00,WUHU215WMR968SP,2013-03-04 03:25:00,
2013-03-03 22:31:00,20.7,18.6,29.87,NNW,333,0.0,3.1,92,0.00,,,0.00,WUHU215WMR968SP,2013-03-04 03:31:00,
2013-03-03 22:36:00,20.7,18.6,29.90,NNW,337,0.0,3.1,92,0.00,,,0.00,WUHU215WMR968SP,2013-03-04 03:36:00,
2013-03-03 22:41:00,20.5,18.9,29.90,NNW,337,2.2,3.1,94,0.00,,,0.00,WUHU215WMR968SP,2013-03-04 03:41:00,
2013-03-03 22:46:00,20.5,18.9,29.90,NNW,343,0.0,3.1,94,0.00,,,0.00,WUHU215WMR968SP,2013-03-04 03:46:00,
2013-03-03 22:51:00,20.5,18.9,29.90,NNW,343,0.0,2.7,94,0.00,,,0.00,WUHU215WMR968SP,2013-03-04 03:51:00,
2013-03-03 22:56:00,20.3,18.7,29.90,NNW,343,0.0,0.0,94,0.00,,,0.00,WUHU215WMR968SP,2013-03-04 03:56:00,
2013-03-03 23:01:00,20.1,18.5,29.87,NW,325,0.0,3.1,94,0.00,,,0.00,WUHU215WMR968SP,2013-03-04 04:01:00,
2013-03-03 23:06:00,20.1,18.5,29.87,NW,315,0.0,3.1,94,0.00,,,0.00,WUHU215WMR968SP,2013-03-04 04:06:00,
2013-03-03 23:11:00,19.9,18.3,29.87,NW,315,0.0,3.1,94,0.00,,,0.00,WUHU215WMR968SP,2013-03-04 04:11:00,
2013-03-03 23:16:00,19.9,18.3,29.90,NNW,334,0.0,2.2,94,0.00,,,0.00,WUHU215WMR968SP,2013-03-04 04:16:00,
2013-03-03 23:21:00,19.9,18.3,29.90,NNW,332,0.0,3.6,94,0.00,,,0.00,WUHU215WMR968SP,2013-03-04 04:21:00,
2013-03-03 23:26:00,19.9,18.7,29.90,NNW,332,2.2,3.6,95,0.00,,,0.00,WUHU215WMR968SP,2013-03-04 04:26:00,
2013-03-03 23:31:00,19.9,18.7,29.90,NNW,345,0.0,3.1,95,0.00,,,0.00,WUHU215WMR968SP,2013-03-04 04:31:00,
2013-03-03 23:36:00,19.8,18.6,29.90,NNW,345,0.0,3.1,95,0.00,,,0.00,WUHU215WMR968SP,2013-03-04 04:36:00,
2013-03-03 23:41:00,19.6,18.4,29.90,North,353,0.0,3.1,95,0.00,,,0.00,WUHU215WMR968SP,2013-03-04 04:41:00,
2013-03-03 23:46:00,19.4,18.6,29.90,North,0,0.0,3.1,97,0.00,,,0.00,WUHU215WMR968SP,2013-03-04 04:46:00,
2013-03-03 23:51:00,19.4,18.6,29.90,North,0,0.0,2.7,97,0.00,,,0.00,WUHU215WMR968SP,2013-03-04 04:51:00,
2013-03-03 23:56:00,19.2,18.4,29.90,North,0,0.0,2.2,97,0.00,,,0.00,WUHU215WMR968SP,2013-03-04 04:56:00,